createdAt,value
2022-07-30T00:05:22.257Z,6.63
2022-07-30T00:11:27.660Z,6.80
2022-07-30T00:17:30.143Z,5.37
2022-07-30T00:23:34.186Z,11.50
2022-07-30T00:29:36.153Z,7.17
2022-07-30T00:35:46.902Z,7.00
2022-07-30T00:42:02.600Z,8.60
2022-07-30T00:48:05.064Z,5.60
2022-07-30T00:54:07.476Z,8.43
2022-07-30T01:00:14.119Z,10.30
2022-07-30T01:06:16.160Z,8.00
2022-07-30T01:12:23.629Z,4.33
2022-07-30T01:18:49.373Z,4.67
2022-07-30T01:25:31.999Z,6.43
2022-07-30T01:31:34.797Z,7.00
2022-07-30T01:37:38.479Z,6.73
2022-07-30T01:43:41.577Z,6.33
2022-07-30T01:49:47.297Z,6.60
2022-07-30T01:55:51.522Z,7.47
2022-07-30T02:01:53.592Z,8.37
2022-07-30T02:08:15.901Z,11.30
2022-07-30T02:14:49.535Z,10.90
2022-07-30T02:21:07.496Z,13.10
2022-07-30T02:27:27.727Z,6.03
2022-07-30T02:33:48.791Z,9.43
2022-07-30T02:39:53.271Z,8.13
2022-07-30T02:45:55.819Z,5.90
2022-07-30T02:51:59.778Z,8.57
2022-07-30T02:58:05.707Z,10.90
2022-07-30T03:04:09.057Z,8.57
2022-07-30T03:10:13.449Z,9.10
2022-07-30T03:16:19.787Z,6.80
2022-07-30T03:22:29.977Z,6.97
2022-07-30T03:28:39.567Z,8.30
2022-07-30T03:34:42.617Z,7.30
2022-07-30T03:40:46.738Z,6.10
2022-07-30T03:46:52.327Z,6.33
2022-07-30T03:52:55.169Z,8.73
2022-07-30T03:58:57.233Z,10.70
2022-07-30T04:04:59.217Z,9.23
2022-07-30T04:11:01.233Z,6.20
2022-07-30T04:17:08.427Z,9.37
2022-07-30T04:23:11.969Z,7.83
2022-07-30T04:29:18.267Z,9.13
2022-07-30T04:35:51.408Z,8.17
2022-07-30T04:41:53.258Z,8.87
2022-07-30T04:47:55.352Z,8.00
2022-07-30T04:53:59.104Z,7.17
2022-07-30T05:00:01.330Z,8.17
2022-07-30T05:06:05.174Z,8.30
2022-07-30T05:12:08.034Z,11.67
2022-07-30T05:18:10.706Z,9.40
2022-07-30T05:24:12.998Z,11.77
2022-07-30T05:30:15.004Z,8.90
2022-07-30T05:36:16.981Z,11.80
2022-07-30T05:42:18.937Z,13.00
2022-07-30T05:48:20.932Z,10.10
2022-07-30T05:54:23.810Z,8.07
2022-07-30T06:00:27.014Z,14.40
2022-07-30T06:06:29.014Z,10.87
2022-07-30T06:12:31.517Z,11.73
2022-07-30T06:18:33.536Z,9.83
2022-07-30T06:24:35.671Z,14.87
2022-07-30T06:30:37.784Z,9.57
2022-07-30T06:36:39.728Z,10.07
2022-07-30T06:42:41.667Z,11.60
2022-07-30T06:48:44.202Z,7.57
2022-07-30T06:54:47.716Z,9.43
2022-07-30T07:00:49.754Z,6.73
2022-07-30T07:06:51.978Z,8.97
2022-07-30T07:12:54.376Z,8.60
2022-07-30T07:18:56.697Z,7.97
2022-07-30T07:24:58.669Z,9.97
2022-07-30T07:31:00.944Z,7.60
2022-07-30T07:37:03.370Z,10.63
2022-07-30T07:43:05.631Z,12.63
2022-07-30T07:49:07.689Z,7.80
2022-07-30T07:55:10.703Z,10.37
2022-07-30T08:01:12.831Z,8.50
2022-07-30T08:07:14.977Z,7.70
2022-07-30T08:13:48.082Z,7.00
2022-07-30T08:19:39.060Z,5.23
2022-07-30T08:25:41.071Z,6.83
2022-07-30T08:31:43.175Z,6.70
2022-07-30T08:37:45.179Z,10.50
2022-07-30T08:43:50.133Z,10.00
2022-07-30T08:49:52.931Z,6.47
2022-07-30T08:55:58.607Z,5.60
2022-07-30T09:02:01.046Z,6.97
2022-07-30T09:08:07.225Z,6.83
2022-07-30T09:14:14.192Z,7.80
2022-07-30T09:20:17.161Z,5.50
2022-07-30T09:26:19.130Z,7.20
2022-07-30T09:32:21.120Z,11.00
2022-07-30T09:38:24.007Z,6.37
2022-07-30T09:44:29.735Z,10.33
2022-07-30T09:50:31.753Z,7.47
2022-07-30T09:56:33.750Z,12.60
2022-07-30T10:02:36.425Z,5.37
2022-07-30T10:08:50.919Z,7.07
2022-07-30T10:14:55.116Z,11.70
2022-07-30T10:20:57.880Z,7.60
2022-07-30T10:27:05.921Z,4.50
2022-07-30T10:33:08.951Z,10.23
2022-07-30T10:39:47.114Z,5.50
2022-07-30T10:46:20.161Z,5.40
2022-07-30T10:52:51.907Z,7.97
2022-07-30T10:59:08.450Z,3.93
2022-07-30T11:05:44.066Z,3.93
2022-07-30T11:11:59.595Z,7.63
2022-07-30T11:18:12.823Z,4.20
2022-07-30T11:24:47.384Z,3.63
2022-07-30T11:30:53.687Z,6.20
2022-07-30T11:37:18.685Z,5.10
2022-07-30T11:43:35.900Z,4.17
2022-07-30T11:49:38.831Z,2.60
2022-07-30T11:55:47.699Z,2.70
2022-07-30T12:01:52.316Z,4.17
2022-07-30T12:07:59.202Z,3.17
2022-07-30T12:14:02.585Z,3.00
2022-07-30T12:20:17.762Z,2.87
2022-07-30T12:26:30.579Z,3.90
2022-07-30T12:32:32.872Z,5.57
2022-07-30T12:38:48.904Z,5.70
2022-07-30T12:44:51.187Z,2.30
2022-07-30T12:51:08.681Z,2.73
2022-07-30T12:57:10.918Z,4.33
2022-07-30T13:03:39.397Z,3.23
2022-07-30T13:09:41.628Z,2.43
2022-07-30T13:15:54.019Z,2.83
2022-07-30T13:21:56.391Z,5.43
2022-07-30T13:27:58.345Z,4.10
2022-07-30T13:34:02.229Z,3.13
2022-07-30T13:40:05.949Z,11.03
2022-07-30T13:46:08.239Z,5.90
2022-07-30T13:52:10.906Z,3.80
2022-07-30T13:58:13.512Z,4.27
2022-07-30T14:04:15.480Z,2.67
2022-07-30T14:10:17.853Z,5.10
2022-07-30T14:16:42.887Z,2.80
2022-07-30T14:22:42.118Z,3.63
2022-07-30T14:28:44.160Z,3.40
2022-07-30T14:34:49.235Z,5.50
2022-07-30T14:40:51.795Z,2.33
2022-07-30T14:46:53.888Z,2.67
2022-07-30T14:52:55.974Z,2.30
2022-07-30T14:58:58.686Z,2.07
2022-07-30T15:05:00.696Z,2.30
2022-07-30T15:11:05.310Z,2.23
2022-07-30T15:17:09.850Z,2.97
2022-07-30T15:23:13.587Z,3.10
2022-07-30T15:29:16.539Z,2.63
2022-07-30T15:35:18.575Z,4.13
2022-07-30T15:41:20.591Z,7.43
2022-07-30T15:47:23.071Z,5.67
2022-07-30T15:53:25.077Z,6.27
2022-07-30T15:59:27.843Z,6.20
2022-07-30T16:05:51.524Z,6.77
2022-07-30T16:11:52.906Z,8.77
2022-07-30T16:17:54.854Z,5.67
2022-07-30T16:23:56.847Z,4.43
2022-07-30T16:29:58.863Z,4.40
2022-07-30T16:36:00.848Z,4.20
2022-07-30T16:42:04.536Z,4.20
2022-07-30T16:48:07.032Z,3.50
2022-07-30T16:54:09.071Z,5.50
2022-07-30T17:00:12.833Z,4.73
2022-07-30T17:06:15.309Z,4.63
2022-07-30T17:12:17.301Z,4.83
2022-07-30T17:18:25.990Z,5.23
2022-07-30T17:24:27.973Z,5.90
2022-07-30T17:30:30.547Z,5.03
2022-07-30T17:36:32.611Z,6.30
2022-07-30T17:42:34.676Z,8.17
2022-07-30T17:48:36.705Z,7.20
2022-07-30T17:54:38.812Z,5.63
2022-07-30T18:00:40.854Z,7.03
2022-07-30T18:06:42.984Z,5.70
2022-07-30T18:12:48.607Z,5.70
2022-07-30T18:18:51.590Z,6.53
2022-07-30T18:24:53.577Z,5.57
2022-07-30T18:30:55.919Z,5.20
2022-07-30T18:36:58.370Z,4.37
2022-07-30T18:43:00.413Z,6.70
2022-07-30T18:49:20.874Z,4.57
2022-07-30T18:55:24.466Z,3.83
2022-07-30T19:01:26.524Z,4.97
2022-07-30T19:07:28.601Z,6.70
2022-07-30T19:13:50.032Z,6.00
2022-07-30T19:19:53.603Z,3.60
2022-07-30T19:25:55.748Z,4.37
2022-07-30T19:31:58.937Z,6.43
2022-07-30T19:38:01.349Z,8.83
2022-07-30T19:44:07.862Z,3.90
2022-07-30T19:50:11.947Z,8.33
2022-07-30T19:56:13.975Z,5.50
2022-07-30T20:02:16.584Z,5.00
2022-07-30T20:08:24.604Z,7.30
2022-07-30T20:14:26.986Z,4.60
2022-07-30T20:20:29.517Z,6.23
2022-07-30T20:26:31.768Z,6.70
2022-07-30T20:32:34.418Z,9.73
2022-07-30T20:38:37.658Z,7.40
2022-07-30T20:44:49.481Z,7.37
2022-07-30T20:50:52.929Z,9.20
2022-07-30T20:56:54.994Z,6.07
2022-07-30T21:02:56.960Z,6.30
2022-07-30T21:08:58.953Z,6.27
2022-07-30T21:15:00.906Z,7.83
2022-07-30T21:21:04.883Z,5.50
2022-07-30T21:27:07.791Z,10.00
2022-07-30T21:33:09.768Z,7.47
2022-07-30T21:39:13.910Z,6.60
2022-07-30T21:45:16.256Z,6.53
2022-07-30T21:51:18.226Z,18.03
2022-07-30T21:57:26.136Z,9.10
2022-07-30T22:04:04.033Z,15.03
2022-07-30T22:09:51.940Z,8.80
2022-07-30T22:15:55.011Z,14.20
2022-07-30T22:21:57.012Z,10.47
2022-07-30T22:27:59.076Z,11.10
2022-07-30T22:34:01.045Z,13.63
2022-07-30T22:40:04.869Z,17.70
2022-07-30T22:46:14.698Z,11.73
2022-07-30T22:52:22.277Z,11.63
2022-07-30T22:58:26.873Z,8.90
2022-07-30T23:04:29.268Z,11.00
2022-07-30T23:10:31.633Z,14.40
2022-07-30T23:16:34.417Z,14.30
2022-07-30T23:22:37.132Z,12.70
2022-07-30T23:28:39.293Z,10.67
2022-07-30T23:34:41.609Z,13.47
2022-07-30T23:40:43.651Z,10.10
2022-07-30T23:46:45.599Z,13.57
2022-07-30T23:52:47.891Z,15.77
2022-07-30T23:58:49.897Z,13.87
